createdAt,value
2022-10-13T00:01:22.465Z,18.48
2022-10-13T00:03:53.068Z,13.93
2022-10-13T00:06:24.150Z,14.82
2022-10-13T00:08:51.572Z,12.07
2022-10-13T00:11:26.266Z,16.27
2022-10-13T00:14:00.558Z,11.93
2022-10-13T00:16:28.666Z,15.07
2022-10-13T00:19:02.257Z,12.55
2022-10-13T00:21:29.701Z,13.82
2022-10-13T00:24:00.042Z,12.18
2022-10-13T00:26:27.928Z,17.55
2022-10-13T00:28:56.564Z,13.27
2022-10-13T00:31:27.811Z,14.15
2022-10-13T00:33:55.833Z,16.05
2022-10-13T00:36:24.117Z,14.90
2022-10-13T00:38:53.306Z,16.08
2022-10-13T00:41:23.731Z,14.10
2022-10-13T00:43:50.748Z,14.70
2022-10-13T00:46:23.463Z,16.95
2022-10-13T00:48:52.498Z,16.23
2022-10-13T00:51:26.249Z,17.08
2022-10-13T00:53:57.811Z,15.02
2022-10-13T00:56:27.911Z,16.27
2022-10-13T00:58:56.639Z,12.90
2022-10-13T01:01:23.963Z,15.10
2022-10-13T01:03:51.023Z,14.43
2022-10-13T01:06:23.476Z,14.20
2022-10-13T01:08:51.624Z,13.00
2022-10-13T01:11:49.840Z,12.65
2022-10-13T01:14:43.376Z,17.63
2022-10-13T01:17:36.114Z,18.00
2022-10-13T01:20:21.136Z,14.15
2022-10-13T01:23:34.996Z,15.05
2022-10-13T01:26:23.802Z,20.27
2022-10-13T01:29:00.085Z,17.70
2022-10-13T01:31:35.388Z,16.65
2022-10-13T01:34:12.353Z,16.02
2022-10-13T01:37:16.924Z,17.35
2022-10-13T01:40:23.638Z,16.13
2022-10-13T01:43:29.765Z,15.70
2022-10-13T01:46:23.941Z,17.17
2022-10-13T01:48:56.241Z,17.08
2022-10-13T01:51:25.754Z,17.40
2022-10-13T01:53:55.583Z,19.35
2022-10-13T01:56:23.268Z,14.18
2022-10-13T01:58:52.881Z,16.13
2022-10-13T02:01:28.983Z,15.27
2022-10-13T02:04:26.863Z,15.90
2022-10-13T02:07:07.521Z,13.32
2022-10-13T02:10:09.101Z,15.82
2022-10-13T02:12:39.281Z,21.48
2022-10-13T02:15:12.274Z,18.10
2022-10-13T02:17:41.457Z,15.95
2022-10-13T02:20:10.148Z,13.55
2022-10-13T02:22:45.756Z,18.17
2022-10-13T02:25:15.591Z,14.50
2022-10-13T02:27:42.817Z,18.17
2022-10-13T02:30:26.677Z,20.45
2022-10-13T02:32:54.564Z,17.52
2022-10-13T02:35:21.667Z,14.73
2022-10-13T02:37:52.237Z,18.63
2022-10-13T02:40:19.891Z,14.07
2022-10-13T02:42:47.351Z,16.83
2022-10-13T02:45:14.979Z,12.38
2022-10-13T02:47:42.246Z,15.32
2022-10-13T02:50:09.786Z,13.90
2022-10-13T02:52:40.448Z,16.80
2022-10-13T02:55:08.319Z,13.88
2022-10-13T02:57:36.026Z,19.15
2022-10-13T03:00:07.257Z,13.60
2022-10-13T03:02:34.909Z,18.17
2022-10-13T03:05:02.028Z,15.88
2022-10-13T03:07:29.344Z,16.75
2022-10-13T03:09:56.511Z,15.80
2022-10-13T03:12:23.773Z,21.45
2022-10-13T03:14:50.854Z,19.58
2022-10-13T03:17:18.099Z,18.42
2022-10-13T03:19:45.290Z,20.58
2022-10-13T03:22:15.702Z,17.13
2022-10-13T03:24:45.400Z,20.42
2022-10-13T03:27:15.852Z,15.27
2022-10-13T03:29:43.456Z,22.48
2022-10-13T03:32:14.084Z,21.38
2022-10-13T03:34:41.238Z,18.65
2022-10-13T03:37:08.908Z,15.05
2022-10-13T03:39:38.855Z,15.45
2022-10-13T03:42:06.295Z,14.50
2022-10-13T03:44:36.420Z,19.33
2022-10-13T03:47:03.728Z,17.73
2022-10-13T03:49:31.328Z,14.30
2022-10-13T03:51:58.530Z,16.08
2022-10-13T03:54:25.648Z,16.48
2022-10-13T03:56:53.182Z,16.75
2022-10-13T03:59:23.771Z,19.25
2022-10-13T04:01:50.842Z,15.55
2022-10-13T04:04:21.068Z,19.45
2022-10-13T04:06:48.109Z,23.58
2022-10-13T04:09:17.981Z,15.40
2022-10-13T04:11:45.108Z,17.63
2022-10-13T04:14:12.257Z,26.90
2022-10-13T04:16:42.352Z,21.08
2022-10-13T04:19:14.164Z,16.50
2022-10-13T04:21:43.091Z,15.27
2022-10-13T04:24:13.201Z,19.48
2022-10-13T04:26:41.341Z,17.95
2022-10-13T04:29:11.113Z,19.00
2022-10-13T04:31:40.382Z,16.70
2022-10-13T04:34:07.862Z,16.30
2022-10-13T04:36:38.592Z,22.55
2022-10-13T04:39:05.840Z,16.50
2022-10-13T04:41:33.136Z,16.42
2022-10-13T04:44:03.704Z,16.75
2022-10-13T04:46:31.213Z,18.90
2022-10-13T04:48:58.590Z,19.08
2022-10-13T04:51:26.771Z,16.73
2022-10-13T04:53:59.707Z,21.58
2022-10-13T04:56:27.744Z,21.48
2022-10-13T04:58:55.078Z,22.08
2022-10-13T05:01:25.261Z,21.60
2022-10-13T05:03:58.306Z,18.92
2022-10-13T05:06:30.924Z,25.13
2022-10-13T05:09:04.801Z,27.13
2022-10-13T05:11:35.190Z,34.80
2022-10-13T05:14:02.576Z,34.15
2022-10-13T05:16:31.244Z,35.35
2022-10-13T05:18:58.309Z,42.95
2022-10-13T05:21:28.757Z,48.58
2022-10-13T05:23:57.423Z,58.17
2022-10-13T05:26:29.033Z,53.20
2022-10-13T05:29:00.822Z,43.85
2022-10-13T05:31:29.963Z,44.40
2022-10-13T05:33:57.463Z,49.58
2022-10-13T05:36:33.051Z,46.63
2022-10-13T05:39:07.882Z,51.55
2022-10-13T05:41:39.475Z,63.40
2022-10-13T05:44:10.460Z,56.80
2022-10-13T05:46:37.564Z,63.97
2022-10-13T05:49:08.246Z,61.08
2022-10-13T05:51:44.503Z,56.72
2022-10-13T05:54:24.342Z,60.58
2022-10-13T05:57:22.699Z,68.70
2022-10-13T06:00:00.369Z,63.20
2022-10-13T06:02:34.995Z,73.53
2022-10-13T06:05:05.003Z,77.70
2022-10-13T06:07:35.395Z,87.75
2022-10-13T06:10:02.489Z,90.10
2022-10-13T06:12:32.884Z,83.70
2022-10-13T06:15:04.063Z,87.32
2022-10-13T06:17:31.241Z,80.00
2022-10-13T06:19:59.578Z,85.65
2022-10-13T06:22:26.656Z,77.18
2022-10-13T06:24:53.753Z,80.18
2022-10-13T06:27:20.859Z,76.10
2022-10-13T06:29:48.223Z,80.38
2022-10-13T06:32:25.164Z,84.50
2022-10-13T06:34:52.377Z,87.18
2022-10-13T06:37:26.164Z,87.40
2022-10-13T06:39:56.991Z,82.07
2022-10-13T06:42:24.318Z,75.05
2022-10-13T06:44:58.218Z,74.07
2022-10-13T06:47:25.936Z,81.80
2022-10-13T06:49:53.121Z,69.45
2022-10-13T06:52:20.715Z,69.07
2022-10-13T06:54:48.582Z,72.68
2022-10-13T06:57:19.398Z,64.75
2022-10-13T06:59:50.399Z,65.80
2022-10-13T07:02:21.165Z,65.95
2022-10-13T07:04:52.575Z,57.42
2022-10-13T07:07:19.693Z,56.95
2022-10-13T07:09:46.717Z,62.90
2022-10-13T07:12:14.619Z,62.88
2022-10-13T07:14:43.766Z,58.60
2022-10-13T07:17:14.582Z,60.58
2022-10-13T07:19:41.759Z,54.65
2022-10-13T07:22:09.287Z,58.35
2022-10-13T07:24:36.314Z,47.45
2022-10-13T07:27:07.660Z,56.45
2022-10-13T07:29:35.091Z,52.22
2022-10-13T07:32:02.693Z,54.85
2022-10-13T07:34:33.379Z,49.03
2022-10-13T07:37:00.480Z,52.33
2022-10-13T07:39:30.749Z,54.53
2022-10-13T07:41:57.914Z,59.17
2022-10-13T07:44:28.721Z,61.22
2022-10-13T07:46:59.296Z,61.08
2022-10-13T07:49:26.415Z,62.53
2022-10-13T07:51:53.661Z,72.22
2022-10-13T07:54:27.241Z,65.88
2022-10-13T07:56:56.260Z,68.43
2022-10-13T07:59:23.457Z,81.93
2022-10-13T08:01:50.897Z,69.40
2022-10-13T08:04:18.416Z,82.68
2022-10-13T08:06:45.638Z,74.18
2022-10-13T08:09:12.942Z,73.72
2022-10-13T08:11:40.004Z,84.30
2022-10-13T08:14:07.208Z,70.45
2022-10-13T08:16:34.387Z,77.35
2022-10-13T08:19:01.508Z,78.60
2022-10-13T08:24:18.231Z,65.57
2022-10-13T08:26:47.158Z,80.40
2022-10-13T08:29:22.885Z,66.10
2022-10-13T08:31:54.892Z,64.97
2022-10-13T08:34:25.745Z,50.30
2022-10-13T08:36:56.798Z,66.07
2022-10-13T08:39:25.428Z,54.30
2022-10-13T08:41:53.332Z,71.05
2022-10-13T08:48:00.736Z,70.70
2022-10-13T08:50:33.227Z,56.25
2022-10-13T08:53:35.707Z,66.30
2022-10-13T08:56:36.957Z,61.17
2022-10-13T08:59:12.902Z,51.20
2022-10-13T09:01:42.011Z,58.50
2022-10-13T09:04:36.341Z,67.22
2022-10-13T09:07:10.018Z,58.92
2022-10-13T09:09:38.614Z,53.45
2022-10-13T09:12:06.906Z,62.63
2022-10-13T09:14:37.542Z,51.63
2022-10-13T09:17:28.883Z,67.10
2022-10-13T09:20:03.097Z,62.47
2022-10-13T09:22:37.167Z,56.65
2022-10-13T09:25:07.228Z,45.58
2022-10-13T09:28:00.201Z,58.58
2022-10-13T09:30:49.730Z,53.88
2022-10-13T09:33:24.187Z,50.95
2022-10-13T09:35:57.187Z,51.50
2022-10-13T09:38:26.237Z,56.92
2022-10-13T09:41:15.747Z,62.47
2022-10-13T09:43:43.041Z,53.45
2022-10-13T09:46:20.587Z,59.92
2022-10-13T09:49:02.328Z,52.17
2022-10-13T09:51:41.101Z,55.60
2022-10-13T09:54:35.790Z,63.80
2022-10-13T09:57:30.145Z,49.10
2022-10-13T10:00:26.668Z,68.00
2022-10-13T10:03:01.821Z,54.25
2022-10-13T10:05:51.790Z,59.13
2022-10-13T10:09:03.382Z,61.55
2022-10-13T10:11:43.311Z,67.47
2022-10-13T10:14:38.289Z,56.50
2022-10-13T10:17:23.535Z,65.78
2022-10-13T10:20:13.207Z,72.13
2022-10-13T10:22:56.591Z,66.93
2022-10-13T10:26:24.961Z,67.72
2022-10-13T10:29:19.734Z,71.95
2022-10-13T10:32:01.111Z,76.80
2022-10-13T10:34:42.977Z,69.75
2022-10-13T10:37:58.730Z,63.47
2022-10-13T10:40:57.631Z,74.00
2022-10-13T10:43:49.927Z,67.90
2022-10-13T10:46:32.636Z,74.53
2022-10-13T10:49:17.965Z,70.22
2022-10-13T10:51:45.648Z,66.90
2022-10-13T10:54:38.937Z,67.10
2022-10-13T10:57:13.922Z,67.57
2022-10-13T11:00:22.326Z,67.13
2022-10-13T11:03:07.298Z,76.97
2022-10-13T11:06:17.732Z,66.82
2022-10-13T11:08:49.832Z,65.68
2022-10-13T11:11:25.181Z,73.05
2022-10-13T11:14:10.311Z,70.57
2022-10-13T11:16:59.229Z,78.43
2022-10-13T11:19:40.006Z,66.88
2022-10-13T11:22:06.983Z,73.63
2022-10-13T11:24:33.917Z,69.75
2022-10-13T11:27:12.456Z,65.47
2022-10-13T11:29:58.031Z,67.07
2022-10-13T11:32:30.569Z,62.95
2022-10-13T11:34:58.191Z,80.95
2022-10-13T11:38:09.253Z,62.70
2022-10-13T11:40:45.523Z,67.30
2022-10-13T11:43:53.084Z,67.80
2022-10-13T11:46:49.644Z,62.75
2022-10-13T11:49:50.694Z,70.82
2022-10-13T11:52:47.148Z,56.30
2022-10-13T11:57:48.727Z,63.42
2022-10-13T12:00:19.092Z,55.65
2022-10-13T12:02:53.371Z,62.13
2022-10-13T12:05:28.305Z,58.80
2022-10-13T12:08:04.660Z,58.35
2022-10-13T12:10:35.653Z,58.35
2022-10-13T12:13:04.462Z,56.03
2022-10-13T12:15:44.114Z,49.90
2022-10-13T12:18:23.911Z,57.67
2022-10-13T12:20:56.426Z,59.90
2022-10-13T12:23:25.412Z,55.45
2022-10-13T12:25:58.269Z,63.22
2022-10-13T12:29:05.133Z,75.40
2022-10-13T12:31:59.608Z,60.65
2022-10-13T12:34:36.076Z,50.60
2022-10-13T12:37:30.816Z,67.93
2022-10-13T12:39:59.706Z,65.82
2022-10-13T12:42:32.162Z,61.22
2022-10-13T12:45:01.358Z,68.15
2022-10-13T12:47:49.478Z,73.82
2022-10-13T12:50:28.482Z,67.30
2022-10-13T12:53:18.854Z,58.78
2022-10-13T12:55:55.438Z,57.45
2022-10-13T12:58:43.721Z,54.22
2022-10-13T13:01:13.998Z,54.38
2022-10-13T13:03:43.349Z,62.78
2022-10-13T13:06:16.545Z,58.90
2022-10-13T13:08:43.933Z,57.22
2022-10-13T13:11:34.008Z,59.78
2022-10-13T13:14:38.155Z,60.33
2022-10-13T13:17:45.463Z,56.35
2022-10-13T13:20:27.094Z,66.95
2022-10-13T13:22:55.259Z,58.30
2022-10-13T13:25:23.017Z,57.55
2022-10-13T13:27:51.009Z,68.70
2022-10-13T13:30:21.838Z,64.47
2022-10-13T13:32:52.486Z,64.38
2022-10-13T13:35:19.725Z,54.10
2022-10-13T13:37:49.882Z,55.97
2022-10-13T13:40:35.282Z,58.85
2022-10-13T13:43:06.022Z,56.92
2022-10-13T13:45:34.852Z,52.63
2022-10-13T13:48:02.612Z,58.25
2022-10-13T13:50:37.256Z,62.70
2022-10-13T13:53:05.527Z,57.73
2022-10-13T13:55:33.331Z,53.55
2022-10-13T13:58:00.546Z,62.05
2022-10-13T14:00:27.723Z,50.47
2022-10-13T14:02:56.406Z,51.45
2022-10-13T14:05:24.004Z,53.95
2022-10-13T14:07:55.861Z,49.40
2022-10-13T14:10:23.979Z,60.75
2022-10-13T14:12:52.680Z,59.80
2022-10-13T14:15:21.037Z,54.63
2022-10-13T14:17:48.824Z,55.92
2022-10-13T14:20:16.084Z,49.83
2022-10-13T14:22:49.564Z,59.50
2022-10-13T14:25:20.298Z,64.07
2022-10-13T14:27:47.525Z,49.92
2022-10-13T14:30:15.234Z,60.58
2022-10-13T14:32:42.958Z,52.80
2022-10-13T14:35:10.198Z,59.38
2022-10-13T14:37:37.772Z,50.47
2022-10-13T14:40:05.699Z,58.80
2022-10-13T14:42:32.826Z,48.53
2022-10-13T14:45:00.194Z,49.47
2022-10-13T14:47:30.735Z,54.90
2022-10-13T14:49:58.353Z,45.28
2022-10-13T14:52:25.432Z,58.88
2022-10-13T14:54:52.535Z,56.47
2022-10-13T14:57:23.431Z,50.20
2022-10-13T14:59:50.857Z,51.85
2022-10-13T15:02:18.099Z,52.75
2022-10-13T15:04:48.700Z,46.38
2022-10-13T15:07:18.834Z,48.83
2022-10-13T15:09:53.234Z,49.05
2022-10-13T15:12:28.580Z,57.38
2022-10-13T15:14:59.062Z,49.58
2022-10-13T15:17:26.162Z,62.88
2022-10-13T15:20:00.065Z,57.17
2022-10-13T15:22:27.306Z,53.53
2022-10-13T15:24:54.939Z,49.08
2022-10-13T15:27:22.109Z,49.38
2022-10-13T15:29:49.386Z,51.28
2022-10-13T15:32:20.439Z,45.15
2022-10-13T15:34:50.714Z,46.10
2022-10-13T15:37:18.080Z,52.22
2022-10-13T15:39:45.278Z,60.50
2022-10-13T15:42:12.950Z,42.90
2022-10-13T15:44:57.747Z,41.25
2022-10-13T15:47:27.670Z,47.78
2022-10-13T15:49:55.443Z,41.60
2022-10-13T15:52:22.735Z,47.33
2022-10-13T15:54:51.571Z,40.50
2022-10-13T15:57:22.089Z,37.05
2022-10-13T15:59:49.597Z,35.10
2022-10-13T16:02:20.442Z,49.47
2022-10-13T16:04:47.694Z,36.70
2022-10-13T16:07:14.925Z,41.08
2022-10-13T16:09:45.374Z,41.25
2022-10-13T16:12:19.183Z,40.28
2022-10-13T16:14:46.718Z,56.58
2022-10-13T16:17:13.825Z,42.28
2022-10-13T16:19:40.896Z,65.82
2022-10-13T16:22:11.303Z,58.20
2022-10-13T16:24:41.866Z,45.60
2022-10-13T16:27:09.557Z,39.83
2022-10-13T16:29:36.698Z,50.13
2022-10-13T16:32:03.953Z,38.97
2022-10-13T16:34:31.578Z,43.15
2022-10-13T16:36:59.143Z,39.22
2022-10-13T16:39:29.319Z,44.45
2022-10-13T16:41:56.683Z,41.33
2022-10-13T16:44:24.210Z,43.53
2022-10-13T16:46:53.873Z,42.45
2022-10-13T16:49:27.020Z,41.97
2022-10-13T16:51:57.956Z,47.42
2022-10-13T16:54:25.344Z,44.03
2022-10-13T16:56:52.532Z,51.25
2022-10-13T16:59:19.632Z,47.38
2022-10-13T17:01:47.335Z,42.75
2022-10-13T17:04:17.300Z,50.97
2022-10-13T17:06:48.514Z,41.08
2022-10-13T17:09:16.064Z,44.63
2022-10-13T17:11:47.028Z,43.08
2022-10-13T17:14:14.796Z,40.78
2022-10-13T17:16:42.103Z,38.88
2022-10-13T17:19:14.108Z,49.45
2022-10-13T17:21:45.726Z,41.55
2022-10-13T17:24:17.353Z,57.30
2022-10-13T17:26:45.298Z,45.00
2022-10-13T17:29:13.215Z,43.55
2022-10-13T17:31:44.281Z,44.35
2022-10-13T17:34:17.619Z,43.80
2022-10-13T17:36:47.696Z,48.20
2022-10-13T17:39:19.141Z,42.50
2022-10-13T17:41:47.278Z,43.67
2022-10-13T17:44:24.168Z,45.67
2022-10-13T17:46:51.701Z,40.38
2022-10-13T17:49:22.506Z,51.00
2022-10-13T17:51:54.403Z,47.35
2022-10-13T17:54:26.217Z,48.45
2022-10-13T17:56:57.644Z,50.80
2022-10-13T17:59:28.049Z,51.05
2022-10-13T18:01:55.835Z,48.78
2022-10-13T18:04:29.998Z,48.42
2022-10-13T18:07:03.646Z,50.40
2022-10-13T18:09:37.697Z,49.15
2022-10-13T18:12:06.101Z,46.15
2022-10-13T18:14:34.925Z,44.53
2022-10-13T18:17:03.747Z,49.35
2022-10-13T18:19:35.399Z,43.95
2022-10-13T18:22:08.733Z,42.03
2022-10-13T18:24:36.468Z,44.05
2022-10-13T18:27:04.983Z,44.00
2022-10-13T18:29:32.791Z,44.92
2022-10-13T18:32:04.235Z,45.63
2022-10-13T18:34:32.147Z,45.10
2022-10-13T18:37:00.649Z,47.90
2022-10-13T18:39:29.781Z,51.85
2022-10-13T18:41:58.032Z,43.30
2022-10-13T18:44:26.335Z,41.45
2022-10-13T18:46:56.532Z,49.22
2022-10-13T18:49:31.309Z,44.17
2022-10-13T18:52:05.841Z,46.20
2022-10-13T18:54:34.280Z,43.92
2022-10-13T18:57:05.415Z,42.45
2022-10-13T18:59:34.687Z,45.83
2022-10-13T19:02:04.173Z,55.50
2022-10-13T19:04:37.946Z,52.58
2022-10-13T19:07:06.035Z,47.90
2022-10-13T19:09:34.213Z,45.08
2022-10-13T19:12:02.137Z,53.28
2022-10-13T19:14:31.671Z,52.40
2022-10-13T19:17:02.259Z,40.55
2022-10-13T19:19:33.474Z,47.60
2022-10-13T19:22:01.834Z,47.47
2022-10-13T19:24:33.141Z,48.25
2022-10-13T19:27:05.182Z,50.50
2022-10-13T19:29:36.433Z,54.28
2022-10-13T19:32:04.621Z,48.55
2022-10-13T19:34:33.788Z,58.60
2022-10-13T19:37:03.871Z,52.22
2022-10-13T19:39:34.829Z,44.28
2022-10-13T19:42:02.866Z,46.22
2022-10-13T19:44:34.221Z,50.97
2022-10-13T19:47:02.280Z,54.72
2022-10-13T19:49:30.846Z,48.42
2022-10-13T19:51:58.928Z,53.78
2022-10-13T19:54:32.930Z,55.78
2022-10-13T19:57:02.308Z,50.50
2022-10-13T19:59:30.492Z,42.35
2022-10-13T20:01:59.797Z,45.10
2022-10-13T20:04:28.009Z,45.80
2022-10-13T20:06:55.896Z,53.97
2022-10-13T20:09:27.391Z,49.88
2022-10-13T20:11:55.188Z,45.55
2022-10-13T20:14:22.626Z,49.42
2022-10-13T20:16:50.109Z,41.28
2022-10-13T20:19:19.854Z,52.78
2022-10-13T20:21:48.170Z,46.15
2022-10-13T20:24:15.943Z,52.58
2022-10-13T20:26:43.176Z,56.60
2022-10-13T20:29:10.629Z,44.13
2022-10-13T20:31:41.625Z,58.38
2022-10-13T20:34:11.380Z,52.53
2022-10-13T20:36:39.351Z,53.17
2022-10-13T20:39:07.700Z,46.97
2022-10-13T20:41:34.898Z,55.42
2022-10-13T20:44:02.528Z,56.13
2022-10-13T20:46:30.117Z,53.13
2022-10-13T20:49:10.492Z,47.22
2022-10-13T20:51:39.589Z,53.95
2022-10-13T20:54:07.667Z,55.50
2022-10-13T20:56:35.784Z,56.42
2022-10-13T20:59:10.487Z,49.85
2022-10-13T21:01:38.164Z,47.15
2022-10-13T21:04:05.812Z,52.55
2022-10-13T21:06:33.926Z,54.80
2022-10-13T21:09:01.098Z,48.92
2022-10-13T21:11:28.414Z,53.90
2022-10-13T21:13:55.711Z,57.08
2022-10-13T21:16:27.363Z,49.40
2022-10-13T21:18:56.424Z,52.35
2022-10-13T21:21:27.960Z,51.40
2022-10-13T21:24:02.211Z,52.45
2022-10-13T21:26:31.752Z,48.78
2022-10-13T21:29:00.197Z,46.85
2022-10-13T21:31:28.582Z,47.97
2022-10-13T21:33:58.588Z,49.45
2022-10-13T21:36:30.404Z,46.83
2022-10-13T21:39:04.631Z,52.72
2022-10-13T21:41:31.943Z,53.20
2022-10-13T21:43:59.408Z,52.28
2022-10-13T21:46:29.836Z,55.45
2022-10-13T21:49:04.132Z,56.70
2022-10-13T21:51:37.951Z,53.92
2022-10-13T21:54:09.311Z,47.65
2022-10-13T21:56:38.128Z,55.05
2022-10-13T21:59:06.910Z,51.08
2022-10-13T22:01:34.902Z,55.10
2022-10-13T22:04:02.952Z,58.63
2022-10-13T22:06:33.653Z,61.42
2022-10-13T22:09:05.230Z,63.33
2022-10-13T22:11:35.302Z,53.58
2022-10-13T22:14:02.833Z,48.88
2022-10-13T22:16:39.096Z,51.42
2022-10-13T22:19:06.741Z,53.92
2022-10-13T22:21:39.057Z,53.75
2022-10-13T22:24:09.782Z,53.95
2022-10-13T22:26:42.792Z,50.83
2022-10-13T22:29:12.975Z,49.95
2022-10-13T22:31:40.353Z,55.88
2022-10-13T22:34:14.640Z,51.58
2022-10-13T22:36:45.464Z,53.72
2022-10-13T22:39:13.703Z,57.35
2022-10-13T22:41:40.866Z,57.90
2022-10-13T22:44:08.378Z,47.47
2022-10-13T22:46:38.108Z,49.90
2022-10-13T22:49:07.228Z,54.00
2022-10-13T22:51:35.981Z,49.78
2022-10-13T22:54:03.560Z,51.20
2022-10-13T22:56:34.999Z,51.63
2022-10-13T22:59:07.363Z,56.42
2022-10-13T23:01:35.387Z,53.83
2022-10-13T23:04:02.913Z,52.17
2022-10-13T23:06:32.962Z,52.55
2022-10-13T23:09:05.456Z,52.72
2022-10-13T23:11:33.059Z,53.08
2022-10-13T23:14:01.673Z,59.55
2022-10-13T23:16:29.374Z,50.50
2022-10-13T23:18:56.702Z,56.15
2022-10-13T23:21:27.274Z,54.40
2022-10-13T23:24:01.001Z,53.90
2022-10-13T23:26:29.378Z,54.08
2022-10-13T23:28:57.995Z,59.38
2022-10-13T23:31:27.111Z,52.75
2022-10-13T23:33:58.741Z,48.85
2022-10-13T23:36:31.770Z,53.60
2022-10-13T23:39:06.522Z,53.63
2022-10-13T23:41:37.650Z,48.25
2022-10-13T23:44:05.025Z,53.10
2022-10-13T23:46:32.368Z,54.38
2022-10-13T23:48:59.512Z,51.85
2022-10-13T23:51:27.032Z,53.55
2022-10-13T23:53:55.086Z,48.47
2022-10-13T23:56:25.329Z,53.45
2022-10-13T23:58:52.469Z,49.30
